Time,TemperatureF,DewpointF,PressureIn,WindDirection,WindDirectionDegrees,WindSpeedMPH,WindSpeedGustMPH,Humidity,HourlyPrecipIn,Conditions,Clouds,dailyrainin,SolarRadiationWatts/m^2,SoftwareType,DateUTC
2013-06-16 00:01:00,59.0,-16.0,-100.00,WSW,244,7.0,10.0,4,0.00,,,0.00,0.000000,,2013-06-16 07:01:00,
2013-06-16 00:43:00,57.0,-13.0,-100.00,SW,227,4.0,12.0,5,0.00,,,0.00,0.000000,,2013-06-16 07:43:00,
2013-06-16 00:53:00,57.0,-13.0,-100.00,SW,227,4.0,12.0,5,0.00,,,0.00,0.000000,,2013-06-16 07:53:00,
2013-06-16 01:02:00,57.0,-13.0,-100.00,SW,227,4.0,12.0,5,0.00,,,0.00,0.000000,,2013-06-16 08:02:00,
2013-06-16 01:11:00,57.0,-13.0,-100.00,SW,227,4.0,12.0,5,0.00,,,0.00,0.000000,,2013-06-16 08:11:00,
2013-06-16 01:34:00,57.0,-18.0,-100.00,WSW,245,6.0,12.0,4,0.00,,,0.00,0.000000,,2013-06-16 08:34:00,
2013-06-16 01:54:00,57.0,-18.0,-100.00,WSW,245,6.0,12.0,4,0.00,,,0.00,0.000000,,2013-06-16 08:54:00,
2013-06-16 02:12:00,53.0,-13.0,-100.00,WSW,255,7.0,10.0,6,0.00,,,0.00,0.000000,,2013-06-16 09:12:00,
2013-06-16 02:33:00,53.0,-13.0,-100.00,WSW,255,7.0,10.0,6,0.00,,,0.00,0.000000,,2013-06-16 09:33:00,
2013-06-16 02:43:00,53.0,-13.0,-100.00,WSW,255,7.0,10.0,6,0.00,,,0.00,0.000000,,2013-06-16 09:43:00,
2013-06-16 02:52:00,53.0,-13.0,-100.00,WSW,255,7.0,10.0,6,0.00,,,0.00,0.000000,,2013-06-16 09:52:00,
2013-06-16 03:01:00,53.0,-13.0,-100.00,WSW,255,7.0,10.0,6,0.00,,,0.00,0.000000,,2013-06-16 10:01:00,
2013-06-16 03:33:00,53.0,-9.0,-100.00,West,267,6.0,10.0,7,0.00,,,0.00,0.000000,,2013-06-16 10:33:00,
2013-06-16 03:43:00,53.0,-9.0,-100.00,West,267,6.0,10.0,7,0.00,,,0.00,0.000000,,2013-06-16 10:43:00,
2013-06-16 03:53:00,53.0,-9.0,-100.00,West,267,6.0,10.0,7,0.00,,,0.00,0.000000,,2013-06-16 10:53:00,
2013-06-16 04:02:00,53.0,-9.0,-100.00,West,267,6.0,10.0,7,0.00,,,0.00,0.000000,,2013-06-16 11:02:00,
2013-06-16 04:11:00,53.0,-9.0,-100.00,West,267,6.0,10.0,7,0.00,,,0.00,0.000000,,2013-06-16 11:11:00,
2013-06-16 04:43:00,52.0,-7.0,-100.00,WSW,255,7.0,11.0,8,0.00,,,0.00,0.000000,,2013-06-16 11:43:00,
2013-06-16 04:53:00,52.0,-7.0,-100.00,WSW,255,7.0,11.0,8,0.00,,,0.00,0.000000,,2013-06-16 11:53:00,
2013-06-16 05:01:00,52.0,-7.0,-100.00,WSW,255,7.0,11.0,8,0.00,,,0.00,0.000000,,2013-06-16 12:01:00,
2013-06-16 05:11:00,52.0,-7.0,-100.00,WSW,255,7.0,11.0,8,0.00,,,0.00,0.000000,,2013-06-16 12:11:00,
2013-06-16 05:33:00,51.0,-8.0,-100.00,West,261,6.0,10.0,8,0.00,,,0.00,1.000000,,2013-06-16 12:33:00,
2013-06-16 05:43:00,51.0,-8.0,-100.00,West,261,6.0,10.0,8,0.00,,,0.00,1.000000,,2013-06-16 12:43:00,
2013-06-16 05:53:00,51.0,-8.0,-100.00,West,261,6.0,10.0,8,0.00,,,0.00,1.000000,,2013-06-16 12:53:00,
2013-06-16 06:01:00,51.0,-8.0,-100.00,West,261,6.0,10.0,8,0.00,,,0.00,1.000000,,2013-06-16 13:01:00,
2013-06-16 06:11:00,51.0,-8.0,-100.00,West,261,6.0,10.0,8,0.00,,,0.00,1.000000,,2013-06-16 13:11:00,
2013-06-16 06:34:00,57.0,1.0,-100.00,West,259,5.0,8.0,10,0.00,,,0.00,110.000000,,2013-06-16 13:34:00,
2013-06-16 06:43:00,57.0,1.0,-100.00,West,259,5.0,8.0,10,0.00,,,0.00,110.000000,,2013-06-16 13:43:00,
2013-06-16 06:53:00,57.0,1.0,-100.00,West,259,5.0,8.0,10,0.00,,,0.00,110.000000,,2013-06-16 13:53:00,
2013-06-16 07:34:00,63.0,6.0,-100.00,ESE,118,0.0,6.0,10,-99.99,,,0.00,335.000000,,2013-06-16 14:34:00,
2013-06-16 08:43:00,64.0,4.0,-100.00,SE,141,4.0,9.0,9,0.00,,,0.00,548.000000,,2013-06-16 15:43:00,
2013-06-16 08:52:00,64.0,4.0,-100.00,SE,141,4.0,9.0,9,0.00,,,0.00,548.000000,,2013-06-16 15:52:00,
2013-06-16 09:11:00,64.0,4.0,-100.00,SE,141,4.0,9.0,9,0.00,,,0.00,548.000000,,2013-06-16 16:11:00,
2013-06-16 09:33:00,66.0,3.0,-100.00,SSE,150,0.0,11.0,8,0.00,,,0.00,737.000000,,2013-06-16 16:33:00,
2013-06-16 09:43:00,66.0,3.0,-100.00,SSE,150,0.0,11.0,8,0.00,,,0.00,737.000000,,2013-06-16 16:43:00,
2013-06-16 09:53:00,66.0,3.0,-100.00,SSE,150,0.0,11.0,8,0.00,,,0.00,737.000000,,2013-06-16 16:53:00,
2013-06-16 10:01:00,66.0,3.0,-100.00,SSE,150,0.0,11.0,8,0.00,,,0.00,737.000000,,2013-06-16 17:01:00,
2013-06-16 10:11:00,66.0,3.0,-100.00,SSE,150,0.0,11.0,8,0.00,,,0.00,737.000000,,2013-06-16 17:11:00,
2013-06-16 10:12:00,66.0,-3.0,-100.00,SSW,195,0.0,0.0,6,0.00,,,0.00,889.000000,,2013-06-16 17:12:00,
2013-06-16 10:43:00,66.0,-3.0,-100.00,SSW,195,0.0,0.0,6,0.00,,,0.00,889.000000,,2013-06-16 17:43:00,
2013-06-16 10:53:00,66.0,-3.0,-100.00,SSW,195,0.0,0.0,6,0.00,,,0.00,889.000000,,2013-06-16 17:53:00,
2013-06-16 11:02:00,66.0,-3.0,-100.00,SSW,195,0.0,0.0,6,0.00,,,0.00,889.000000,,2013-06-16 18:02:00,
2013-06-16 11:34:00,69.0,-1.0,-100.00,SSE,147,0.0,0.0,6,0.00,,,0.00,992.000000,,2013-06-16 18:34:00,
2013-06-16 11:43:00,69.0,-1.0,-100.00,SSE,147,0.0,0.0,6,0.00,,,0.00,992.000000,,2013-06-16 18:43:00,
2013-06-16 11:52:00,69.0,-1.0,-100.00,SSE,147,0.0,0.0,6,0.00,,,0.00,992.000000,,2013-06-16 18:52:00,
2013-06-16 12:01:00,69.0,-1.0,-100.00,SSE,147,0.0,0.0,6,0.00,,,0.00,992.000000,,2013-06-16 19:01:00,
2013-06-16 12:11:00,69.0,-1.0,-100.00,SSE,147,0.0,0.0,6,0.00,,,0.00,992.000000,,2013-06-16 19:11:00,
2013-06-16 12:43:00,70.0,-4.0,-100.00,South,176,0.0,0.0,5,0.00,,,0.00,1043.000000,,2013-06-16 19:43:00,
2013-06-16 12:53:00,70.0,-4.0,-100.00,South,176,0.0,0.0,5,0.00,,,0.00,1043.000000,,2013-06-16 19:53:00,
2013-06-16 13:01:00,70.0,-4.0,-100.00,South,176,0.0,0.0,5,0.00,,,0.00,1043.000000,,2013-06-16 20:01:00,
2013-06-16 13:11:00,70.0,-4.0,-100.00,South,176,0.0,0.0,5,0.00,,,0.00,1043.000000,,2013-06-16 20:11:00,
2013-06-16 13:33:00,70.0,0.0,-100.00,SSE,166,0.0,0.0,6,0.00,,,0.00,1029.000000,,2013-06-16 20:33:00,
2013-06-16 13:43:00,70.0,0.0,-100.00,SSE,166,0.0,0.0,6,0.00,,,0.00,1029.000000,,2013-06-16 20:43:00,
2013-06-16 13:53:00,70.0,0.0,-100.00,SSE,166,0.0,0.0,6,0.00,,,0.00,1029.000000,,2013-06-16 20:53:00,
2013-06-16 14:01:00,70.0,0.0,-100.00,SSE,166,0.0,0.0,6,0.00,,,0.00,1029.000000,,2013-06-16 21:01:00,
2013-06-16 14:11:00,70.0,0.0,-100.00,SSE,166,0.0,0.0,6,0.00,,,0.00,1029.000000,,2013-06-16 21:11:00,
2013-06-16 14:12:00,72.0,5.0,-100.00,South,191,0.0,0.0,7,0.00,,,0.00,557.000000,,2013-06-16 21:12:00,
2013-06-16 14:33:00,72.0,5.0,-100.00,South,191,0.0,0.0,7,0.00,,,0.00,557.000000,,2013-06-16 21:33:00,
2013-06-16 14:42:00,72.0,5.0,-100.00,South,191,0.0,0.0,7,0.00,,,0.00,557.000000,,2013-06-16 21:42:00,
2013-06-16 14:53:00,72.0,5.0,-100.00,South,191,0.0,0.0,7,0.00,,,0.00,557.000000,,2013-06-16 21:53:00,
2013-06-16 15:01:00,72.0,5.0,-100.00,South,191,0.0,0.0,7,0.00,,,0.00,557.000000,,2013-06-16 22:01:00,
2013-06-16 15:32:00,72.0,1.0,-100.00,SW,225,0.0,0.0,6,0.00,,,0.00,854.000000,,2013-06-16 22:32:00,
2013-06-16 15:42:00,72.0,1.0,-100.00,SW,225,0.0,0.0,6,0.00,,,0.00,854.000000,,2013-06-16 22:42:00,
2013-06-16 15:52:00,72.0,1.0,-100.00,SW,225,0.0,0.0,6,0.00,,,0.00,854.000000,,2013-06-16 22:52:00,
2013-06-16 16:01:00,72.0,1.0,-100.00,SW,225,0.0,0.0,6,0.00,,,0.00,854.000000,,2013-06-16 23:01:00,
2013-06-16 16:11:00,72.0,1.0,-100.00,SW,225,0.0,0.0,6,0.00,,,0.00,854.000000,,2013-06-16 23:11:00,
2013-06-16 16:32:00,72.0,1.0,-100.00,South,172,4.0,11.0,6,0.00,,,0.00,700.000000,,2013-06-16 23:32:00,
2013-06-16 16:42:00,72.0,1.0,-100.00,South,172,4.0,11.0,6,0.00,,,0.00,700.000000,,2013-06-16 23:42:00,
2013-06-16 16:52:00,72.0,1.0,-100.00,South,172,4.0,11.0,6,0.00,,,0.00,700.000000,,2013-06-16 23:52:00,
2013-06-16 17:01:00,72.0,1.0,-100.00,South,172,4.0,11.0,6,0.00,,,0.00,700.000000,,2013-06-17 00:01:00,
2013-06-16 17:11:00,72.0,1.0,-100.00,South,172,4.0,11.0,6,0.00,,,0.00,700.000000,,2013-06-17 00:11:00,
2013-06-16 18:32:00,68.0,-5.0,-100.00,WSW,249,0.0,13.0,5,-99.99,,,0.00,283.000000,,2013-06-17 01:32:00,
2013-06-16 18:43:00,68.0,-5.0,-100.00,WSW,249,0.0,13.0,5,-99.99,,,0.00,283.000000,,2013-06-17 01:43:00,
2013-06-16 18:53:00,68.0,-5.0,-100.00,WSW,249,0.0,13.0,5,-99.99,,,0.00,283.000000,,2013-06-17 01:53:00,
2013-06-16 19:02:00,68.0,-5.0,-100.00,WSW,249,0.0,13.0,5,-99.99,,,0.00,283.000000,,2013-06-17 02:02:00,
2013-06-16 19:11:00,68.0,-5.0,-100.00,WSW,249,0.0,13.0,5,-99.99,,,0.00,283.000000,,2013-06-17 02:11:00,
2013-06-16 19:34:00,63.0,1.0,-100.00,WSW,253,0.0,0.0,8,0.00,,,0.00,77.000000,,2013-06-17 02:34:00,
2013-06-16 19:43:00,63.0,1.0,-100.00,WSW,253,0.0,0.0,8,0.00,,,0.00,77.000000,,2013-06-17 02:43:00,
2013-06-16 19:53:00,63.0,1.0,-100.00,WSW,253,0.0,0.0,8,0.00,,,0.00,77.000000,,2013-06-17 02:53:00,
2013-06-16 20:02:00,63.0,1.0,-100.00,WSW,253,0.0,0.0,8,0.00,,,0.00,77.000000,,2013-06-17 03:02:00,
2013-06-16 20:11:00,63.0,1.0,-100.00,WSW,253,0.0,0.0,8,0.00,,,0.00,77.000000,,2013-06-17 03:11:00,
2013-06-16 20:12:00,59.0,-2.0,-100.00,WSW,248,0.0,0.0,8,0.00,,,0.00,13.000000,,2013-06-17 03:12:00,
2013-06-16 20:33:00,59.0,-2.0,-100.00,WSW,248,0.0,0.0,8,0.00,,,0.00,13.000000,,2013-06-17 03:33:00,
2013-06-16 20:44:00,59.0,-2.0,-100.00,WSW,248,0.0,0.0,8,0.00,,,0.00,13.000000,,2013-06-17 03:44:00,
2013-06-16 20:54:00,59.0,-2.0,-100.00,WSW,248,0.0,0.0,8,0.00,,,0.00,13.000000,,2013-06-17 03:54:00,
2013-06-16 21:02:00,59.0,-2.0,-100.00,WSW,248,0.0,0.0,8,0.00,,,0.00,13.000000,,2013-06-17 04:02:00,
2013-06-16 21:43:00,59.0,-5.0,-100.00,WSW,246,0.0,0.0,7,0.00,,,0.00,0.000000,,2013-06-17 04:43:00,
2013-06-16 21:53:00,59.0,-5.0,-100.00,WSW,246,0.0,0.0,7,0.00,,,0.00,0.000000,,2013-06-17 04:53:00,
2013-06-16 22:02:00,59.0,-5.0,-100.00,WSW,246,0.0,0.0,7,0.00,,,0.00,0.000000,,2013-06-17 05:02:00,
2013-06-16 22:11:00,59.0,-5.0,-100.00,WSW,246,0.0,0.0,7,0.00,,,0.00,0.000000,,2013-06-17 05:11:00,
2013-06-16 22:12:00,57.0,3.0,-100.00,WSW,252,0.0,0.0,11,0.00,,,0.00,0.000000,,2013-06-17 05:12:00,
2013-06-16 22:33:00,57.0,3.0,-100.00,WSW,252,0.0,0.0,11,0.00,,,0.00,0.000000,,2013-06-17 05:33:00,
2013-06-16 22:44:00,57.0,3.0,-100.00,WSW,252,0.0,0.0,11,0.00,,,0.00,0.000000,,2013-06-17 05:44:00,
2013-06-16 22:53:00,57.0,3.0,-100.00,WSW,252,0.0,0.0,11,0.00,,,0.00,0.000000,,2013-06-17 05:53:00,
2013-06-16 23:02:00,57.0,3.0,-100.00,WSW,252,0.0,0.0,11,0.00,,,0.00,0.000000,,2013-06-17 06:02:00,
2013-06-16 23:43:00,58.0,7.0,-100.00,WNW,286,6.0,11.0,13,0.00,,,0.00,0.000000,,2013-06-17 06:43:00,
2013-06-16 23:53:00,58.0,7.0,-100.00,WNW,286,6.0,11.0,13,0.00,,,0.00,0.000000,,2013-06-17 06:53:00,